Terminal Aerodrome Forecast
Issued by NWS North Platte, NE

Home | Current Version | Previous Version | Graphics & Text | Print | Product List | Glossary On
Versions: 1 2 3 4 5 6 7 8 9 10 11 12 13 14 15 16
966
FTUS43 KLBF 201735
TAFVTN
TAF
KVTN 201735Z 2018/2118 28012G19KT P6SM SCT250
     FM202100 31012G19KT P6SM BKN250
     FM210000 30008KT P6SM BKN200
     FM210600 31007KT P6SM SCT050 BKN100
     FM210900 34012KT P6SM BKN050 BKN100=

USA.gov is the U.S. government's official web portal to all federal, state and local government web resources and services.